createdAt,value
2019-03-10T00:02:12.962Z,222.63
2019-03-10T00:07:15.345Z,207.62
2019-03-10T00:09:46.693Z,191.00
2019-03-10T00:12:19.222Z,185.97
2019-03-10T00:14:50.532Z,193.02
2019-03-10T00:17:21.894Z,146.62
2019-03-10T00:19:53.370Z,136.70
2019-03-10T00:22:24.939Z,143.32
2019-03-10T00:24:56.289Z,148.20
2019-03-10T00:27:27.546Z,141.90
2019-03-10T00:29:58.975Z,154.82
2019-03-10T00:32:31.602Z,139.25
2019-03-10T00:35:02.803Z,133.70
2019-03-10T00:37:34.247Z,129.53
2019-03-10T00:40:08.734Z,136.70
2019-03-10T00:42:58.448Z,156.07
2019-03-10T00:45:35.955Z,153.00
2019-03-10T00:48:30.364Z,134.18
2019-03-10T00:51:21.667Z,161.28
2019-03-10T00:53:53.199Z,181.90
2019-03-10T00:56:24.524Z,178.15
2019-03-10T00:58:55.793Z,159.70
2019-03-10T01:01:27.260Z,171.82
2019-03-10T01:03:58.697Z,131.32
2019-03-10T01:06:30.110Z,167.77
2019-03-10T01:09:01.589Z,164.85
2019-03-10T01:11:34.568Z,164.25
2019-03-10T01:14:05.893Z,152.12
2019-03-10T01:16:37.081Z,93.65
2019-03-10T01:19:08.456Z,170.90
2019-03-10T01:21:40.270Z,163.52
2019-03-10T01:24:11.718Z,182.10
2019-03-10T01:26:43.067Z,164.35
2019-03-10T01:29:14.539Z,138.37
2019-03-10T01:31:51.874Z,153.10
2019-03-10T01:34:45.547Z,140.92
2019-03-10T01:37:16.772Z,151.93
2019-03-10T01:39:48.029Z,129.45
2019-03-10T01:42:19.420Z,141.28
2019-03-10T01:44:50.773Z,121.40
2019-03-10T01:47:22.108Z,126.50
2019-03-10T01:49:53.309Z,115.30
2019-03-10T01:52:24.656Z,101.18
2019-03-10T01:54:56.013Z,127.80
2019-03-10T01:57:27.277Z,115.52
2019-03-10T01:59:58.691Z,153.30
2019-03-10T02:02:30.010Z,149.97
2019-03-10T02:05:01.365Z,164.70
2019-03-10T02:07:33.022Z,147.37
2019-03-10T02:10:06.847Z,132.43
2019-03-10T02:12:38.297Z,130.97
2019-03-10T02:15:12.502Z,132.87
2019-03-10T02:17:43.702Z,152.22
2019-03-10T02:20:17.297Z,211.03
2019-03-10T02:22:48.673Z,212.70
2019-03-10T02:25:20.123Z,219.32
2019-03-10T02:27:52.585Z,175.85
2019-03-10T02:30:23.985Z,159.15
2019-03-10T02:32:55.250Z,196.57
2019-03-10T02:35:26.676Z,230.77
2019-03-10T02:37:58.089Z,182.20
2019-03-10T02:40:29.433Z,202.45
2019-03-10T02:43:00.752Z,183.25
2019-03-10T02:45:32.001Z,166.00
2019-03-10T02:48:03.926Z,191.68
2019-03-10T02:50:35.354Z,170.75
2019-03-10T02:53:06.675Z,169.97
2019-03-10T02:55:37.971Z,166.32
2019-03-10T02:58:09.366Z,161.10
2019-03-10T03:00:40.711Z,118.13
2019-03-10T03:03:12.187Z,170.12
2019-03-10T03:05:43.566Z,143.47
2019-03-10T03:08:16.942Z,131.67
2019-03-10T03:10:48.077Z,138.18
2019-03-10T03:13:19.512Z,156.32
2019-03-10T03:15:50.847Z,142.30
2019-03-10T03:18:22.250Z,127.70
2019-03-10T03:20:53.770Z,134.05
2019-03-10T03:23:25.104Z,129.78
2019-03-10T03:25:56.338Z,117.33
2019-03-10T03:28:27.601Z,133.78
2019-03-10T03:30:59.100Z,134.15
2019-03-10T03:33:30.470Z,144.85
2019-03-10T03:36:05.069Z,130.22
2019-03-10T03:38:42.591Z,133.40
2019-03-10T03:41:19.886Z,132.37
2019-03-10T03:43:51.112Z,143.17
2019-03-10T03:46:22.452Z,152.55
2019-03-10T03:48:53.682Z,144.93
2019-03-10T03:51:25.097Z,156.43
2019-03-10T03:53:56.468Z,156.65
2019-03-10T03:56:28.078Z,145.90
2019-03-10T03:58:59.329Z,146.37
2019-03-10T04:01:32.201Z,152.68
2019-03-10T04:04:03.392Z,144.10
2019-03-10T04:06:34.734Z,127.47
2019-03-10T04:09:08.064Z,139.22
2019-03-10T04:11:39.387Z,140.90
2019-03-10T04:14:10.748Z,136.45
2019-03-10T04:16:42.088Z,163.20
2019-03-10T04:19:13.664Z,150.40
2019-03-10T04:21:45.195Z,167.45
2019-03-10T04:24:16.535Z,167.40
2019-03-10T04:26:47.953Z,152.65
2019-03-10T04:29:21.583Z,171.60
2019-03-10T04:31:52.330Z,151.75
2019-03-10T04:34:23.741Z,130.78
2019-03-10T04:36:55.000Z,149.62
2019-03-10T04:39:26.370Z,164.28
2019-03-10T04:41:57.615Z,143.13
2019-03-10T04:44:29.014Z,158.10
2019-03-10T04:47:00.475Z,157.93
2019-03-10T04:49:31.768Z,127.92
2019-03-10T04:52:03.182Z,134.43
2019-03-10T04:54:52.572Z,163.57
2019-03-10T04:57:24.362Z,132.47
2019-03-10T04:59:55.749Z,144.60
2019-03-10T05:02:27.707Z,151.12
2019-03-10T05:07:29.377Z,168.05
2019-03-10T05:10:00.699Z,172.32
2019-03-10T05:12:32.382Z,154.82
2019-03-10T05:15:05.978Z,183.65
2019-03-10T05:17:37.316Z,167.72
2019-03-10T05:20:08.954Z,159.07
2019-03-10T05:22:40.435Z,153.35
2019-03-10T05:25:18.144Z,151.55
2019-03-10T05:27:49.522Z,132.07
2019-03-10T05:30:20.935Z,140.12
2019-03-10T05:32:52.315Z,162.57
2019-03-10T05:35:23.716Z,140.00
2019-03-10T05:37:55.018Z,106.50
2019-03-10T05:40:26.297Z,130.05
2019-03-10T05:42:57.696Z,122.30
2019-03-10T05:45:28.893Z,124.92
2019-03-10T05:48:00.223Z,111.97
2019-03-10T05:50:31.657Z,109.90
2019-03-10T05:53:03.016Z,105.15
2019-03-10T05:55:34.292Z,108.10
2019-03-10T05:58:05.757Z,120.45
2019-03-10T06:00:42.633Z,82.00
2019-03-10T06:03:10.286Z,113.47
2019-03-10T06:05:41.741Z,106.52
2019-03-10T06:08:13.091Z,106.22
2019-03-10T06:10:44.651Z,102.47
2019-03-10T06:13:15.914Z,107.95
2019-03-10T06:15:47.254Z,93.65
2019-03-10T06:18:18.436Z,97.97
2019-03-10T06:20:49.849Z,102.17
2019-03-10T06:23:21.171Z,108.78
2019-03-10T06:25:52.627Z,103.87
2019-03-10T06:28:23.908Z,108.30
2019-03-10T06:30:56.411Z,77.20
2019-03-10T06:33:28.008Z,101.20
2019-03-10T06:35:59.453Z,96.12
2019-03-10T06:38:30.891Z,95.95
2019-03-10T06:41:02.182Z,98.58
2019-03-10T06:43:33.656Z,84.00
2019-03-10T06:46:05.093Z,86.72
2019-03-10T06:48:37.633Z,84.95
2019-03-10T06:51:10.089Z,91.63
2019-03-10T06:53:41.348Z,89.85
2019-03-10T06:56:12.673Z,91.05
2019-03-10T06:58:44.073Z,89.70
2019-03-10T07:01:15.433Z,80.17
2019-03-10T07:03:46.787Z,88.60
2019-03-10T07:06:18.172Z,90.57
2019-03-10T07:08:49.566Z,77.15
2019-03-10T07:11:20.906Z,91.60
2019-03-10T07:13:52.256Z,86.80
2019-03-10T07:16:23.680Z,93.55
2019-03-10T07:18:55.135Z,80.72
2019-03-10T07:21:27.613Z,85.28
2019-03-10T07:23:59.421Z,76.77
2019-03-10T07:26:30.889Z,75.72
2019-03-10T07:29:03.973Z,71.05
2019-03-10T07:31:42.819Z,74.07
2019-03-10T07:34:21.311Z,71.82
2019-03-10T07:37:12.688Z,69.90
2019-03-10T07:40:03.621Z,67.10
2019-03-10T07:42:36.700Z,74.65
2019-03-10T07:45:16.851Z,62.03
2019-03-10T07:47:55.855Z,67.10
2019-03-10T07:50:28.759Z,62.73
2019-03-10T07:53:01.690Z,68.33
2019-03-10T07:55:37.485Z,64.32
2019-03-10T07:58:10.361Z,67.72
2019-03-10T08:00:54.887Z,74.47
2019-03-10T08:03:36.628Z,57.75
2019-03-10T08:06:25.043Z,66.35
2019-03-10T08:09:09.906Z,65.55
2019-03-10T08:12:01.261Z,66.75
2019-03-10T08:14:50.201Z,70.30
2019-03-10T08:17:32.228Z,71.17
2019-03-10T08:20:05.920Z,76.97
2019-03-10T08:22:38.928Z,62.93
2019-03-10T08:25:14.480Z,73.47
2019-03-10T08:28:00.936Z,66.12
2019-03-10T08:30:31.136Z,69.03
2019-03-10T08:33:19.934Z,73.83
2019-03-10T08:36:08.085Z,71.22
2019-03-10T08:38:41.057Z,70.95
2019-03-10T08:41:28.983Z,67.15
2019-03-10T08:44:04.709Z,68.92
2019-03-10T08:46:53.336Z,61.60
2019-03-10T08:49:26.385Z,64.82
2019-03-10T08:51:59.302Z,69.22
2019-03-10T08:54:38.206Z,71.77
2019-03-10T08:57:11.111Z,57.95
2019-03-10T08:59:44.022Z,59.73
2019-03-10T09:02:17.039Z,67.65
2019-03-10T09:05:06.142Z,66.87
2019-03-10T09:07:41.840Z,70.12
2019-03-10T09:10:20.775Z,78.65
2019-03-10T09:12:56.360Z,66.02
2019-03-10T09:15:44.216Z,59.88
2019-03-10T09:18:17.176Z,64.27
2019-03-10T09:21:02.210Z,64.20
2019-03-10T09:23:35.213Z,54.83
2019-03-10T09:26:14.023Z,57.73
2019-03-10T09:28:49.769Z,60.08
2019-03-10T09:31:28.698Z,58.75
2019-03-10T09:34:04.247Z,55.60
2019-03-10T09:36:53.770Z,63.42
2019-03-10T09:39:26.614Z,47.05
2019-03-10T09:42:15.532Z,44.53
2019-03-10T09:44:57.288Z,43.92
2019-03-10T09:50:17.679Z,31.97
2019-03-10T09:53:08.618Z,37.63
2019-03-10T09:55:57.579Z,38.17
2019-03-10T09:58:31.371Z,39.13
2019-03-10T10:01:13.122Z,32.90
2019-03-10T10:03:48.926Z,35.05
2019-03-10T10:06:27.746Z,33.55
2019-03-10T10:09:17.781Z,32.35
2019-03-10T10:11:54.148Z,35.68
2019-03-10T10:14:27.183Z,30.40
2019-03-10T10:17:00.128Z,24.23
2019-03-10T10:19:36.354Z,27.32
2019-03-10T10:22:27.532Z,28.42
2019-03-10T10:25:00.393Z,25.92
2019-03-10T10:27:33.375Z,24.70
2019-03-10T10:30:12.764Z,26.73
2019-03-10T10:32:45.959Z,22.70
2019-03-10T10:35:35.423Z,27.60
2019-03-10T10:38:18.949Z,23.12
2019-03-10T10:40:57.883Z,19.48
2019-03-10T10:43:33.792Z,21.27
2019-03-10T10:46:22.853Z,23.30
2019-03-10T10:48:55.800Z,17.55
2019-03-10T10:51:31.471Z,16.90
2019-03-10T10:54:04.478Z,21.17
2019-03-10T10:56:37.466Z,21.77
2019-03-10T10:59:10.405Z,21.37
2019-03-10T11:02:00.529Z,17.82
2019-03-10T11:04:49.653Z,19.77
2019-03-10T11:07:37.515Z,19.27
2019-03-10T11:10:22.954Z,22.40
2019-03-10T11:13:12.109Z,14.85
2019-03-10T11:15:53.600Z,19.00
2019-03-10T11:18:25.829Z,20.50
2019-03-10T11:21:07.845Z,16.73
2019-03-10T11:23:46.680Z,21.20
2019-03-10T11:26:25.423Z,22.10
2019-03-10T11:29:03.805Z,22.10
2019-03-10T11:31:42.225Z,20.30
2019-03-10T11:34:27.291Z,19.67
2019-03-10T11:37:16.343Z,14.85
2019-03-10T11:39:49.425Z,17.10
2019-03-10T11:42:37.244Z,17.75
2019-03-10T11:45:11.538Z,18.20
2019-03-10T11:47:47.339Z,18.12
2019-03-10T11:50:29.500Z,18.67
2019-03-10T11:53:19.139Z,20.68
2019-03-10T11:55:49.241Z,19.45
2019-03-10T11:58:22.321Z,16.95
2019-03-10T12:00:55.685Z,18.65
2019-03-10T12:03:29.837Z,16.52
2019-03-10T12:06:05.737Z,19.82
2019-03-10T12:08:53.817Z,17.27
2019-03-10T12:11:25.644Z,16.80
2019-03-10T12:13:57.079Z,15.15
2019-03-10T12:16:31.017Z,15.23
2019-03-10T12:19:01.732Z,16.55
2019-03-10T12:21:33.283Z,12.75
2019-03-10T12:24:04.621Z,11.55
2019-03-10T12:26:36.097Z,11.00
2019-03-10T12:29:07.451Z,14.43
2019-03-10T12:31:38.786Z,17.10
2019-03-10T12:34:10.138Z,17.40
2019-03-10T12:36:41.548Z,14.38
2019-03-10T12:39:13.132Z,13.13
2019-03-10T12:41:44.587Z,18.95
2019-03-10T12:44:15.940Z,10.53
2019-03-10T12:46:47.407Z,16.12
2019-03-10T12:49:18.870Z,13.98
2019-03-10T12:51:50.354Z,13.65
2019-03-10T12:54:21.823Z,14.20
2019-03-10T12:56:53.112Z,15.70
2019-03-10T12:59:24.559Z,23.98
2019-03-10T13:01:55.876Z,22.82
2019-03-10T13:04:27.274Z,28.20
2019-03-10T13:06:58.655Z,32.23
2019-03-10T13:09:30.136Z,37.63
2019-03-10T13:12:01.496Z,27.32
2019-03-10T13:14:32.755Z,23.98
2019-03-10T13:17:04.169Z,21.42
2019-03-10T13:19:35.561Z,17.17
2019-03-10T13:22:07.042Z,15.83
2019-03-10T13:24:38.432Z,14.53
2019-03-10T13:27:10.167Z,37.17
2019-03-10T13:29:41.605Z,34.78
2019-03-10T13:32:13.101Z,31.45
2019-03-10T13:34:44.473Z,29.05
2019-03-10T13:37:16.449Z,27.77
2019-03-10T13:39:47.768Z,19.10
2019-03-10T13:42:19.194Z,30.48
2019-03-10T13:44:50.619Z,28.47
2019-03-10T13:47:21.931Z,27.42
2019-03-10T13:49:55.004Z,27.77
2019-03-10T13:52:26.420Z,29.32
2019-03-10T13:54:57.753Z,23.87
2019-03-10T13:57:30.659Z,27.60
2019-03-10T14:00:01.973Z,29.57
2019-03-10T14:02:34.703Z,27.90
2019-03-10T14:05:07.500Z,28.42
2019-03-10T14:07:39.065Z,33.75
2019-03-10T14:10:11.419Z,41.23
2019-03-10T14:12:42.836Z,100.42
2019-03-10T14:15:15.729Z,80.17
2019-03-10T14:17:47.158Z,146.50
2019-03-10T14:20:18.452Z,49.40
2019-03-10T14:22:49.776Z,34.83
2019-03-10T14:25:21.214Z,31.90
2019-03-10T14:27:52.516Z,37.58
2019-03-10T14:30:23.892Z,20.00
2019-03-10T14:32:55.357Z,33.92
2019-03-10T14:35:26.774Z,98.15
2019-03-10T14:37:58.244Z,25.70
2019-03-10T14:40:29.688Z,11.10
2019-03-10T14:43:00.856Z,10.18
2019-03-10T14:45:32.081Z,8.13
2019-03-10T14:48:03.411Z,7.83
2019-03-10T14:50:34.809Z,7.92
2019-03-10T14:53:05.992Z,3.72
2019-03-10T14:55:37.367Z,5.22
2019-03-10T14:58:08.591Z,14.05
2019-03-10T15:00:40.177Z,5.67
2019-03-10T15:03:12.115Z,7.03
2019-03-10T15:05:43.323Z,8.75
2019-03-10T15:08:14.628Z,10.53
2019-03-10T15:10:45.819Z,9.63
2019-03-10T15:13:17.080Z,17.03
2019-03-10T15:15:48.277Z,22.30
2019-03-10T15:18:19.595Z,25.75
2019-03-10T15:20:58.173Z,22.65
2019-03-10T15:23:32.697Z,28.75
2019-03-10T15:26:04.132Z,25.20
2019-03-10T15:28:35.458Z,31.05
2019-03-10T15:31:06.982Z,32.33
2019-03-10T15:33:38.319Z,34.25
2019-03-10T15:36:19.947Z,31.40
2019-03-10T15:38:42.936Z,34.50
2019-03-10T15:43:45.256Z,30.00
2019-03-10T15:46:16.714Z,18.10
2019-03-10T15:48:48.491Z,42.20
2019-03-10T15:51:21.421Z,44.25
2019-03-10T15:53:52.863Z,55.25
2019-03-10T15:56:24.239Z,55.48
2019-03-10T15:58:55.668Z,75.78
2019-03-10T16:01:27.034Z,96.53
2019-03-10T16:04:00.330Z,124.35
2019-03-10T16:06:31.943Z,122.75
2019-03-10T16:09:03.288Z,109.22
2019-03-10T16:11:36.234Z,103.10
2019-03-10T16:14:07.670Z,85.20
2019-03-10T16:16:39.027Z,62.35
2019-03-10T16:19:10.376Z,52.78
2019-03-10T16:21:41.839Z,53.52
2019-03-10T16:24:13.286Z,34.60
2019-03-10T16:26:45.721Z,38.70
2019-03-10T16:29:17.098Z,30.00
2019-03-10T16:31:48.540Z,19.48
2019-03-10T16:34:19.981Z,15.80
2019-03-10T16:36:51.234Z,15.40
2019-03-10T16:39:23.228Z,16.48
2019-03-10T16:41:54.450Z,16.07
2019-03-10T16:44:25.666Z,15.85
2019-03-10T16:46:56.899Z,29.27
2019-03-10T16:49:28.249Z,23.67
2019-03-10T16:52:00.543Z,18.50
2019-03-10T16:54:31.628Z,16.55
2019-03-10T16:57:02.886Z,15.30
2019-03-10T16:59:34.413Z,18.05
2019-03-10T17:02:05.847Z,16.10
2019-03-10T17:04:37.098Z,10.90
2019-03-10T17:07:08.315Z,21.23
2019-03-10T17:09:39.918Z,16.60
2019-03-10T17:12:10.998Z,13.13
2019-03-10T17:14:42.263Z,20.70
2019-03-10T17:17:13.557Z,34.85
2019-03-10T17:19:44.894Z,49.83
2019-03-10T17:22:16.333Z,36.65
2019-03-10T17:24:47.571Z,26.37
2019-03-10T17:27:19.009Z,28.85
2019-03-10T17:29:51.853Z,30.65
2019-03-10T17:32:23.082Z,27.10
2019-03-10T17:34:54.515Z,25.55
2019-03-10T17:37:25.991Z,27.50
2019-03-10T17:39:58.956Z,22.00
2019-03-10T17:42:30.411Z,16.12
2019-03-10T17:45:02.127Z,18.05
2019-03-10T17:47:33.532Z,19.52
2019-03-10T17:50:06.845Z,23.77
2019-03-10T17:52:38.168Z,30.92
2019-03-10T17:55:11.906Z,42.10
2019-03-10T17:57:43.284Z,48.15
2019-03-10T18:00:39.003Z,50.73
2019-03-10T18:03:10.316Z,64.75
2019-03-10T18:05:41.687Z,72.25
2019-03-10T18:08:13.106Z,62.53
2019-03-10T18:10:44.453Z,62.55
2019-03-10T18:13:15.838Z,54.33
2019-03-10T18:15:47.220Z,64.15
2019-03-10T18:18:18.649Z,68.65
2019-03-10T18:20:50.092Z,57.58
2019-03-10T18:23:21.953Z,72.65
2019-03-10T18:25:53.393Z,61.73
2019-03-10T18:28:24.847Z,62.58
2019-03-10T18:30:56.298Z,69.03
2019-03-10T18:33:27.600Z,60.65
2019-03-10T18:36:00.249Z,64.53
2019-03-10T18:38:31.593Z,67.67
2019-03-10T18:41:02.903Z,63.25
2019-03-10T18:43:34.169Z,50.35
2019-03-10T18:46:05.633Z,45.05
2019-03-10T18:48:37.675Z,32.20
2019-03-10T18:51:10.160Z,21.05
2019-03-10T18:53:41.599Z,17.87
2019-03-10T18:56:12.961Z,15.90
2019-03-10T18:58:44.287Z,20.40
2019-03-10T19:01:17.024Z,13.18
2019-03-10T19:03:48.253Z,13.28
2019-03-10T19:06:19.437Z,14.63
2019-03-10T19:08:50.687Z,17.30
2019-03-10T19:11:22.071Z,17.77
2019-03-10T19:13:53.304Z,16.27
2019-03-10T19:16:24.659Z,15.85
2019-03-10T19:18:56.003Z,11.57
2019-03-10T19:21:27.320Z,18.52
2019-03-10T19:24:00.090Z,15.83
2019-03-10T19:26:31.330Z,15.27
2019-03-10T19:29:02.550Z,13.10
2019-03-10T19:31:33.803Z,16.12
2019-03-10T19:34:05.073Z,23.02
2019-03-10T19:36:37.629Z,14.55
2019-03-10T19:39:09.040Z,17.57
2019-03-10T19:41:41.763Z,25.20
2019-03-10T19:44:13.163Z,19.98
2019-03-10T19:46:44.933Z,17.95
2019-03-10T19:49:16.241Z,16.30
2019-03-10T19:51:48.758Z,19.92
2019-03-10T19:54:19.999Z,11.90
2019-03-10T19:56:51.209Z,19.90
2019-03-10T19:59:22.614Z,18.35
2019-03-10T20:01:53.965Z,13.98
2019-03-10T20:04:25.275Z,17.57
2019-03-10T20:06:56.558Z,17.35
2019-03-10T20:09:27.878Z,18.90
2019-03-10T20:11:59.090Z,19.15
2019-03-10T20:14:31.444Z,21.73
2019-03-10T20:17:02.771Z,21.40
2019-03-10T20:19:34.035Z,10.43
2019-03-10T20:22:05.186Z,12.50
2019-03-10T20:24:36.573Z,11.55
2019-03-10T20:27:07.814Z,15.98
2019-03-10T20:29:38.886Z,14.25
2019-03-10T20:32:14.176Z,13.40
2019-03-10T20:34:43.193Z,16.45
2019-03-10T20:37:14.342Z,13.75
2019-03-10T20:39:45.546Z,20.08
2019-03-10T20:42:16.812Z,17.77
2019-03-10T20:44:48.173Z,13.45
2019-03-10T20:47:19.512Z,15.78
2019-03-10T20:49:50.666Z,17.70
2019-03-10T20:52:21.928Z,14.68
2019-03-10T20:54:53.132Z,16.37
2019-03-10T20:57:24.378Z,17.90
2019-03-10T21:00:00.530Z,13.85
2019-03-10T21:02:29.015Z,12.05
2019-03-10T21:05:00.352Z,20.00
2019-03-10T21:07:31.745Z,24.27
2019-03-10T21:10:03.083Z,14.75
2019-03-10T21:12:40.680Z,11.55
2019-03-10T21:15:10.370Z,10.75
2019-03-10T21:17:41.515Z,18.40
2019-03-10T21:20:15.558Z,14.63
2019-03-10T21:22:46.885Z,19.05
2019-03-10T21:25:29.985Z,17.62
2019-03-10T21:28:01.207Z,17.25
2019-03-10T21:30:33.982Z,19.80
2019-03-10T21:33:05.205Z,19.67
2019-03-10T21:35:36.407Z,15.90
2019-03-10T21:38:07.522Z,17.55
2019-03-10T21:40:38.901Z,15.72
2019-03-10T21:43:10.116Z,15.40
2019-03-10T21:45:41.420Z,13.55
2019-03-10T21:48:12.663Z,21.40
2019-03-10T21:50:43.882Z,14.45
2019-03-10T21:53:15.060Z,17.60
2019-03-10T21:55:46.382Z,23.00
2019-03-10T22:00:48.881Z,22.87
2019-03-10T22:03:20.090Z,17.05
2019-03-10T22:05:51.481Z,22.48
2019-03-10T22:08:22.946Z,17.87
2019-03-10T22:10:54.092Z,18.27
2019-03-10T22:13:25.386Z,18.25
2019-03-10T22:15:57.071Z,15.25
2019-03-10T22:18:28.416Z,14.00
2019-03-10T22:20:59.792Z,13.72
2019-03-10T22:23:31.039Z,9.88
2019-03-10T22:26:02.276Z,9.15
2019-03-10T22:28:33.558Z,15.25
2019-03-10T22:31:04.855Z,13.62
2019-03-10T22:33:36.132Z,59.70
2019-03-10T22:36:07.543Z,23.18
2019-03-10T22:38:38.673Z,11.40
2019-03-10T22:41:09.860Z,9.53
2019-03-10T22:43:41.067Z,14.05
2019-03-10T22:46:12.730Z,13.68
2019-03-10T22:48:44.013Z,11.63
2019-03-10T22:51:15.193Z,19.95
2019-03-10T22:53:46.578Z,21.17
2019-03-10T22:56:17.785Z,12.95
2019-03-10T22:58:49.167Z,19.15
2019-03-10T23:01:20.521Z,21.27
2019-03-10T23:03:51.833Z,26.35
2019-03-10T23:06:23.189Z,23.80
2019-03-10T23:08:54.458Z,30.70
2019-03-10T23:11:25.796Z,33.48
2019-03-10T23:13:57.191Z,32.35
2019-03-10T23:16:28.385Z,33.40
2019-03-10T23:18:59.774Z,37.38
2019-03-10T23:21:31.112Z,33.18
2019-03-10T23:24:02.395Z,23.20
2019-03-10T23:26:35.035Z,28.17
2019-03-10T23:29:07.494Z,31.65
2019-03-10T23:31:40.034Z,30.12
2019-03-10T23:34:11.315Z,27.48
2019-03-10T23:36:42.756Z,29.90
2019-03-10T23:39:14.200Z,25.17
2019-03-10T23:41:45.575Z,27.15
2019-03-10T23:44:17.117Z,26.45
2019-03-10T23:46:48.550Z,24.40
2019-03-10T23:49:19.806Z,26.37
2019-03-10T23:51:51.260Z,25.02
2019-03-10T23:54:22.516Z,24.47
2019-03-10T23:56:54.463Z,27.17
2019-03-10T23:59:25.912Z,22.65
